createdAt,value
2022-09-14T00:02:50.717Z,14.50
2022-09-14T00:08:13.493Z,14.50
2022-09-14T00:13:36.579Z,14.40
2022-09-14T00:19:06.222Z,14.30
2022-09-14T00:24:32.595Z,14.20
2022-09-14T00:29:54.737Z,14.10
2022-09-14T00:35:17.774Z,14.00
2022-09-14T00:40:39.823Z,13.80
2022-09-14T00:46:02.655Z,13.70
2022-09-14T00:51:25.307Z,13.60
2022-09-14T00:56:48.741Z,13.50
2022-09-14T01:02:15.009Z,13.60
2022-09-14T01:07:39.862Z,13.50
2022-09-14T01:13:38.729Z,13.50
2022-09-14T01:19:06.167Z,13.40
2022-09-14T01:24:35.248Z,13.40
2022-09-14T01:30:09.528Z,13.50
2022-09-14T01:35:51.055Z,13.50
2022-09-14T01:41:17.236Z,13.60
2022-09-14T01:46:50.412Z,13.60
2022-09-14T01:52:26.910Z,13.50
2022-09-14T01:57:59.872Z,13.40
2022-09-14T02:03:27.483Z,13.40
2022-09-14T02:08:51.233Z,13.30
2022-09-14T02:14:13.475Z,13.30
2022-09-14T02:19:42.996Z,13.30
2022-09-14T02:25:05.632Z,13.30
2022-09-14T02:30:30.962Z,13.30
2022-09-14T02:35:55.702Z,13.30
2022-09-14T02:41:43.217Z,13.30
2022-09-14T02:47:14.552Z,13.30
2022-09-14T02:52:58.469Z,13.30
2022-09-14T02:58:20.563Z,13.30
2022-09-14T03:03:43.015Z,13.30
2022-09-14T03:09:05.085Z,13.10
2022-09-14T03:14:27.168Z,13.10
2022-09-14T03:19:49.283Z,13.00
2022-09-14T03:25:11.605Z,12.90
2022-09-14T03:30:34.481Z,12.70
2022-09-14T03:35:57.128Z,12.70
2022-09-14T03:41:20.699Z,12.70
2022-09-14T03:46:44.327Z,12.60
2022-09-14T03:52:06.356Z,12.60
2022-09-14T03:57:28.457Z,12.60
2022-09-14T04:02:50.799Z,12.70
2022-09-14T04:08:12.953Z,12.70
2022-09-14T04:13:35.374Z,12.80
2022-09-14T04:18:57.546Z,12.90
2022-09-14T04:24:19.794Z,12.90
2022-09-14T04:29:41.982Z,12.80
2022-09-14T04:35:04.285Z,12.80
2022-09-14T04:40:28.907Z,12.70
2022-09-14T04:45:51.916Z,12.80
2022-09-14T04:51:20.299Z,12.80
2022-09-14T04:56:42.532Z,12.90
2022-09-14T05:02:05.054Z,13.10
2022-09-14T05:07:27.652Z,13.40
2022-09-14T05:12:49.828Z,13.60
2022-09-14T05:18:11.904Z,13.70
2022-09-14T05:23:34.553Z,13.90
2022-09-14T05:28:59.352Z,13.90
2022-09-14T05:34:21.535Z,14.00
2022-09-14T05:39:43.709Z,14.10
2022-09-14T05:45:06.201Z,14.10
2022-09-14T05:50:28.315Z,14.30
2022-09-14T05:56:09.433Z,14.50
2022-09-14T06:01:33.020Z,14.80
2022-09-14T06:07:17.015Z,15.40
2022-09-14T06:12:37.576Z,15.90
2022-09-14T06:17:59.776Z,16.20
2022-09-14T06:23:21.872Z,16.20
2022-09-14T06:28:44.009Z,16.30
2022-09-14T06:34:06.257Z,16.50
2022-09-14T06:39:28.377Z,16.90
2022-09-14T06:44:51.337Z,17.00
2022-09-14T06:50:14.445Z,17.20
2022-09-14T06:55:37.826Z,17.10
2022-09-14T07:01:06.334Z,17.30
2022-09-14T07:06:32.046Z,17.40
2022-09-14T07:11:55.438Z,17.60
2022-09-14T07:17:21.276Z,17.90
2022-09-14T07:22:48.652Z,17.90
2022-09-14T07:28:12.208Z,18.00
2022-09-14T07:33:35.603Z,18.20
2022-09-14T07:38:59.185Z,18.40
2022-09-14T07:44:22.890Z,18.70
2022-09-14T07:49:46.060Z,18.70
2022-09-14T07:55:10.273Z,18.60
2022-09-14T08:00:34.329Z,18.90
2022-09-14T08:06:02.973Z,19.00
2022-09-14T08:11:31.739Z,18.90
2022-09-14T08:16:55.281Z,18.90
2022-09-14T08:22:19.129Z,19.30
2022-09-14T08:27:42.692Z,19.30
2022-09-14T08:33:05.991Z,19.50
2022-09-14T08:38:29.661Z,19.80
2022-09-14T08:43:53.964Z,19.80
2022-09-14T08:49:45.838Z,20.00
2022-09-14T08:55:36.140Z,19.90
2022-09-14T09:01:26.671Z,19.90
2022-09-14T09:06:59.354Z,20.10
2022-09-14T09:12:30.398Z,20.30
2022-09-14T09:18:03.809Z,20.60
2022-09-14T09:23:30.675Z,20.80
2022-09-14T09:28:57.577Z,21.50
2022-09-14T09:34:28.999Z,22.30
2022-09-14T09:40:19.310Z,22.00
2022-09-14T09:45:59.486Z,22.70
2022-09-14T09:51:25.529Z,22.30
2022-09-14T09:57:04.679Z,21.80
2022-09-14T10:02:32.612Z,21.60
2022-09-14T10:08:01.267Z,21.20
2022-09-14T10:13:38.576Z,21.20
2022-09-14T10:19:03.693Z,21.80
2022-09-14T10:24:27.789Z,22.80
2022-09-14T10:29:55.250Z,22.90
2022-09-14T10:35:19.875Z,22.50
2022-09-14T10:40:46.942Z,21.50
2022-09-14T10:46:16.539Z,20.90
2022-09-14T10:51:56.535Z,20.60
2022-09-14T10:57:40.817Z,20.50
2022-09-14T11:03:30.909Z,20.20
2022-09-14T11:09:03.611Z,20.20
2022-09-14T11:14:45.113Z,20.30
2022-09-14T11:20:42.546Z,20.10
2022-09-14T11:26:18.466Z,20.10
2022-09-14T11:32:17.022Z,20.00
2022-09-14T11:37:43.523Z,19.90
2022-09-14T11:43:19.496Z,19.80
2022-09-14T11:49:13.185Z,19.70
2022-09-14T11:54:46.060Z,20.00
2022-09-14T12:00:30.869Z,20.10
2022-09-14T12:05:54.047Z,20.10
2022-09-14T12:11:17.532Z,20.10
2022-09-14T12:17:17.278Z,19.30
2022-09-14T12:22:50.002Z,18.90
2022-09-14T12:28:35.263Z,18.70
2022-09-14T12:34:16.960Z,18.50
2022-09-14T12:39:59.751Z,18.50
2022-09-14T12:45:49.551Z,18.20
2022-09-14T12:51:31.297Z,18.10
2022-09-14T12:57:10.013Z,18.10
2022-09-14T13:03:18.313Z,18.10
2022-09-14T13:08:44.940Z,18.00
2022-09-14T13:14:12.652Z,18.00
2022-09-14T13:19:34.880Z,17.90
2022-09-14T13:24:57.005Z,18.00
2022-09-14T13:30:25.034Z,18.10
2022-09-14T13:35:55.118Z,18.10
2022-09-14T13:41:22.220Z,18.10
2022-09-14T13:46:44.672Z,17.80
2022-09-14T13:52:22.029Z,17.30
2022-09-14T13:58:09.050Z,17.10
2022-09-14T14:03:32.883Z,17.10
2022-09-14T14:09:07.590Z,17.10
2022-09-14T14:14:31.493Z,17.10
2022-09-14T14:20:00.341Z,17.10
2022-09-14T14:25:35.504Z,17.30
2022-09-14T14:31:07.854Z,17.50
2022-09-14T14:36:31.084Z,17.50
2022-09-14T14:41:54.379Z,17.40
2022-09-14T14:47:17.415Z,17.40
2022-09-14T14:52:40.067Z,17.30
2022-09-14T14:58:05.196Z,17.30
2022-09-14T15:03:28.248Z,17.30
2022-09-14T15:08:56.461Z,17.10
2022-09-14T15:14:26.087Z,17.00
2022-09-14T15:19:49.674Z,16.90
2022-09-14T15:25:13.667Z,16.80
2022-09-14T15:30:36.535Z,16.80
2022-09-14T15:35:59.409Z,16.80
2022-09-14T15:41:22.171Z,16.80
2022-09-14T15:46:45.650Z,16.80
2022-09-14T15:52:08.955Z,16.80
2022-09-14T15:57:31.898Z,16.80
2022-09-14T16:02:55.295Z,16.80
2022-09-14T16:08:18.045Z,16.70
2022-09-14T16:13:40.860Z,16.90
2022-09-14T16:19:11.966Z,16.90
2022-09-14T16:24:34.631Z,16.70
2022-09-14T16:29:57.416Z,16.70
2022-09-14T16:35:22.235Z,16.50
2022-09-14T16:40:45.920Z,16.50
2022-09-14T16:46:12.899Z,16.40
2022-09-14T16:51:36.137Z,16.40
2022-09-14T16:57:00.540Z,16.70
2022-09-14T17:02:23.329Z,16.60
2022-09-14T17:07:45.972Z,16.60
2022-09-14T17:13:08.632Z,16.50
2022-09-14T17:18:31.706Z,16.40
2022-09-14T17:23:54.801Z,16.40
2022-09-14T17:29:17.425Z,16.40
2022-09-14T17:34:40.514Z,16.30
2022-09-14T17:40:05.240Z,16.20
2022-09-14T17:45:27.990Z,16.20
2022-09-14T17:50:51.180Z,16.20
2022-09-14T17:56:14.660Z,16.30
2022-09-14T18:01:37.310Z,16.40
2022-09-14T18:06:59.972Z,16.50
2022-09-14T18:12:22.763Z,16.50
2022-09-14T18:17:46.328Z,16.50
2022-09-14T18:23:08.927Z,16.50
2022-09-14T18:28:31.751Z,16.40
2022-09-14T18:33:59.504Z,16.30
2022-09-14T18:39:22.199Z,16.20
2022-09-14T18:44:45.579Z,16.10
2022-09-14T18:50:08.042Z,16.10
2022-09-14T18:55:32.332Z,16.10
2022-09-14T19:00:54.952Z,16.10
2022-09-14T19:06:18.783Z,16.10
2022-09-14T19:11:42.454Z,16.10
2022-09-14T19:17:05.674Z,16.10
2022-09-14T19:22:29.025Z,16.10
2022-09-14T19:27:52.308Z,16.10
2022-09-14T19:33:14.965Z,16.00
2022-09-14T19:38:38.042Z,16.00
2022-09-14T19:44:02.138Z,16.00
2022-09-14T19:49:25.929Z,16.10
2022-09-14T19:54:48.484Z,16.10
2022-09-14T20:00:17.502Z,16.20
2022-09-14T20:05:40.670Z,16.00
2022-09-14T20:11:08.558Z,16.00
2022-09-14T20:16:35.011Z,15.80
2022-09-14T20:21:57.883Z,15.70
2022-09-14T20:27:20.339Z,15.80
2022-09-14T20:32:42.897Z,15.60
2022-09-14T20:38:05.661Z,15.60
2022-09-14T20:43:31.500Z,15.90
2022-09-14T20:48:54.915Z,16.00
2022-09-14T20:54:18.563Z,16.00
2022-09-14T20:59:41.945Z,16.00
2022-09-14T21:05:04.928Z,16.00
2022-09-14T21:10:29.598Z,16.00
2022-09-14T21:15:52.633Z,16.00
2022-09-14T21:21:17.033Z,16.00
2022-09-14T21:26:42.855Z,16.00
2022-09-14T21:32:08.894Z,16.10
2022-09-14T21:37:31.341Z,16.10
2022-09-14T21:42:54.403Z,16.00
2022-09-14T21:48:17.321Z,15.90
2022-09-14T21:53:39.401Z,16.10
2022-09-14T21:59:04.183Z,15.80
2022-09-14T22:04:26.850Z,15.70
2022-09-14T22:09:48.908Z,15.60
2022-09-14T22:15:11.257Z,15.60
2022-09-14T22:20:33.467Z,15.60
2022-09-14T22:25:55.582Z,15.60
2022-09-14T22:32:27.575Z,15.50
2022-09-14T22:37:49.717Z,15.50
2022-09-14T22:43:11.880Z,15.60
2022-09-14T22:48:34.581Z,15.70
2022-09-14T22:53:56.796Z,15.60
2022-09-14T22:59:18.973Z,15.50
2022-09-14T23:04:41.173Z,15.50
2022-09-14T23:10:03.651Z,15.40
2022-09-14T23:15:25.760Z,15.40
2022-09-14T23:20:47.840Z,15.60
2022-09-14T23:26:11.563Z,15.60
2022-09-14T23:31:33.767Z,15.70
2022-09-14T23:36:57.152Z,15.60
2022-09-14T23:42:19.242Z,15.50
2022-09-14T23:47:41.407Z,15.60
2022-09-14T23:53:03.799Z,15.50
2022-09-14T23:58:25.965Z,15.50
